createdAt,value
2022-08-23T04:58:26.071Z,15.83
2022-08-23T05:02:30.134Z,15.80
2022-08-23T05:12:27.141Z,16.07
2022-08-23T05:16:32.867Z,16.10
2022-08-23T05:20:42.511Z,16.26
2022-08-23T05:24:46.564Z,16.50
2022-08-23T05:28:51.094Z,16.68
2022-08-23T05:32:59.696Z,16.98
2022-08-23T05:37:05.295Z,17.30
2022-08-23T05:41:15.561Z,17.60
2022-08-23T05:45:21.201Z,17.87
2022-08-23T05:49:26.888Z,18.15
2022-08-23T05:53:31.164Z,18.41
2022-08-23T05:57:35.764Z,18.61
2022-08-23T06:01:40.190Z,18.76
2022-08-23T06:05:50.862Z,18.94
2022-08-23T06:09:55.531Z,19.14
2022-08-23T06:14:00.900Z,19.22
2022-08-23T06:18:06.758Z,19.57
2022-08-23T06:22:11.497Z,19.72
2022-08-23T06:26:19.917Z,20.10
2022-08-23T06:30:23.060Z,20.64
2022-08-23T06:34:46.539Z,21.11
2022-08-23T06:39:03.508Z,21.38
2022-08-23T06:43:22.064Z,21.58
2022-08-23T06:47:31.072Z,21.92
2022-08-23T06:51:37.584Z,21.73
2022-08-23T06:55:52.804Z,21.96
2022-08-23T07:00:03.330Z,22.05
2022-08-23T07:04:15.865Z,22.18
2022-08-23T07:08:37.627Z,22.32
2022-08-23T07:12:43.499Z,22.30
2022-08-23T07:16:50.004Z,22.43
2022-08-23T07:20:56.983Z,22.62
2022-08-23T07:25:00.093Z,22.60
2022-08-23T07:29:07.984Z,22.78
2022-08-23T07:33:11.509Z,22.58
2022-08-23T07:37:34.669Z,22.82
2022-08-23T07:41:39.906Z,23.04
2022-08-23T07:45:45.179Z,23.08
2022-08-23T07:49:51.041Z,23.45
2022-08-23T07:53:54.444Z,23.47
2022-08-23T07:57:58.552Z,23.73
2022-08-23T08:02:23.462Z,24.67
2022-08-23T08:06:30.386Z,25.57
2022-08-23T08:10:38.436Z,26.56
2022-08-23T08:14:42.563Z,27.62
2022-08-23T08:18:48.553Z,27.31
2022-08-23T08:23:10.588Z,28.42
2022-08-23T08:27:35.160Z,29.32
2022-08-23T08:31:41.044Z,28.40
2022-08-23T08:35:51.500Z,30.42
2022-08-23T08:40:03.701Z,28.69
2022-08-23T08:44:17.013Z,29.34
2022-08-23T08:48:25.201Z,29.94
2022-08-23T08:52:35.043Z,29.44
2022-08-23T08:56:43.516Z,29.06
2022-08-23T09:00:56.689Z,29.13
2022-08-23T09:05:02.283Z,29.77
2022-08-23T09:09:25.987Z,30.18
2022-08-23T09:13:55.478Z,30.52
2022-08-23T09:18:04.822Z,29.56
2022-08-23T09:22:13.883Z,30.46
2022-08-23T09:26:23.176Z,30.34
2022-08-23T09:30:49.238Z,30.75
2022-08-23T09:34:56.653Z,31.03
2022-08-23T09:39:03.712Z,31.44
2022-08-23T09:43:14.535Z,32.98
2022-08-23T09:47:19.795Z,32.09
2022-08-23T09:51:32.173Z,31.65
2022-08-23T09:55:43.120Z,32.22
2022-08-23T09:59:51.864Z,30.93
2022-08-23T10:04:11.468Z,31.66
2022-08-23T10:08:24.608Z,30.52
2022-08-23T10:12:28.230Z,33.27
2022-08-23T10:16:42.041Z,34.09
2022-08-23T10:21:00.967Z,33.57
2022-08-23T10:25:13.549Z,30.98
2022-08-23T10:29:42.381Z,31.92
2022-08-23T10:33:55.051Z,32.30
2022-08-23T10:38:17.778Z,32.60
2022-08-23T10:42:32.322Z,33.17
2022-08-23T10:46:45.592Z,31.58
2022-08-23T10:50:55.902Z,33.59
2022-08-23T10:55:16.955Z,33.66
2022-08-23T10:59:25.090Z,30.63
2022-08-23T11:03:37.484Z,30.28
2022-08-23T11:07:42.916Z,30.06
2022-08-23T11:12:14.367Z,32.54
2022-08-23T11:16:29.101Z,33.64
2022-08-23T11:21:00.053Z,33.76
2022-08-23T11:25:43.365Z,32.68
2022-08-23T11:29:46.513Z,33.44
2022-08-23T11:34:20.230Z,33.75
2022-08-23T11:39:06.593Z,32.44
2022-08-23T11:43:23.584Z,32.77
2022-08-23T11:47:31.191Z,32.69
2022-08-23T11:51:43.603Z,32.98
2022-08-23T11:56:04.422Z,33.15
2022-08-23T12:00:19.199Z,35.33
2022-08-23T12:04:37.564Z,33.31
2022-08-23T12:08:53.615Z,31.88
2022-08-23T12:13:27.279Z,31.88
2022-08-23T12:17:58.404Z,33.44
2022-08-23T12:22:10.719Z,32.87
2022-08-23T12:26:26.158Z,33.23
2022-08-23T12:30:38.715Z,31.66
2022-08-23T12:34:58.789Z,31.50
2022-08-23T12:39:07.355Z,30.64
2022-08-23T12:43:22.589Z,30.96
2022-08-23T12:47:26.024Z,31.04
2022-08-23T12:51:31.236Z,30.74
2022-08-23T12:55:37.779Z,31.73
2022-08-23T12:59:50.490Z,31.18
2022-08-23T13:03:57.670Z,30.98
2022-08-23T13:08:04.144Z,30.59
2022-08-23T13:12:09.597Z,29.43
2022-08-23T13:16:29.718Z,30.30
2022-08-23T13:20:32.847Z,31.03
2022-08-23T13:24:39.284Z,33.26
2022-08-23T13:28:42.445Z,33.21
2022-08-23T13:32:48.214Z,34.04
2022-08-23T13:36:51.350Z,31.65
2022-08-23T13:41:02.282Z,32.01
2022-08-23T13:45:10.361Z,34.14
2022-08-23T13:49:17.482Z,32.27
2022-08-23T13:53:22.390Z,32.44
2022-08-23T13:57:30.088Z,31.26
2022-08-23T14:01:33.892Z,31.76
2022-08-23T14:05:36.885Z,31.58
2022-08-23T14:09:40.639Z,31.56
2022-08-23T14:13:48.767Z,31.27
2022-08-23T14:17:54.260Z,30.75
2022-08-23T14:21:57.770Z,30.75
2022-08-23T14:26:00.841Z,30.86
2022-08-23T14:30:06.628Z,31.21
2022-08-23T14:34:09.634Z,30.38
2022-08-23T14:38:14.375Z,31.28
2022-08-23T14:42:21.426Z,32.05
2022-08-23T14:46:26.020Z,32.95
2022-08-23T14:50:31.182Z,33.37
2022-08-23T14:54:37.158Z,32.33
2022-08-23T14:58:40.426Z,32.20
2022-08-23T15:02:47.439Z,33.28
2022-08-23T15:07:15.961Z,33.35
2022-08-23T15:15:41.890Z,32.82
2022-08-23T15:19:47.170Z,34.81
2022-08-23T15:23:50.886Z,35.99
2022-08-23T15:27:54.348Z,33.33
2022-08-23T15:31:57.500Z,34.01
2022-08-23T15:36:03.472Z,32.87
2022-08-23T15:40:08.455Z,34.42
2022-08-23T15:44:11.619Z,34.73
2022-08-23T15:48:22.401Z,34.43
2022-08-23T15:52:27.499Z,33.11
2022-08-23T15:56:36.183Z,33.77
2022-08-23T16:00:39.621Z,34.18
2022-08-23T16:04:43.360Z,34.45
2022-08-23T16:08:52.636Z,32.37
2022-08-23T16:12:56.036Z,32.72
2022-08-23T16:17:00.944Z,32.44
2022-08-23T16:21:04.201Z,32.10
2022-08-23T16:25:09.682Z,33.06
2022-08-23T16:29:14.734Z,32.86
2022-08-23T16:33:17.873Z,32.78
2022-08-23T16:37:21.015Z,33.08
2022-08-23T16:41:25.492Z,33.01
2022-08-23T16:45:28.546Z,33.21
2022-08-23T16:49:33.623Z,33.09
2022-08-23T16:53:37.359Z,32.75
2022-08-23T16:57:41.954Z,31.94
2022-08-23T17:01:47.516Z,31.11
2022-08-23T17:05:50.727Z,31.52
2022-08-23T17:09:53.850Z,32.22
2022-08-23T17:13:58.841Z,31.86
2022-08-23T17:18:08.495Z,31.51
2022-08-23T17:22:12.025Z,31.10
2022-08-23T17:26:15.099Z,30.53
2022-08-23T17:30:23.237Z,30.13
2022-08-23T17:34:26.391Z,30.32
2022-08-23T17:38:30.290Z,30.43
2022-08-23T17:42:33.471Z,29.94
2022-08-23T17:46:39.993Z,30.00
2022-08-23T17:50:44.033Z,29.88
2022-08-23T17:54:47.092Z,29.83
2022-08-23T17:58:50.401Z,29.33
2022-08-23T18:02:54.911Z,29.03
2022-08-23T18:06:58.614Z,28.66
2022-08-23T18:11:02.167Z,28.57
2022-08-23T18:15:06.042Z,28.35
2022-08-23T18:19:13.127Z,28.34
2022-08-23T18:23:18.000Z,28.13
2022-08-23T18:27:38.507Z,28.06
2022-08-23T18:31:45.073Z,27.68
2022-08-23T18:35:51.484Z,26.94
2022-08-23T18:39:54.774Z,26.27
2022-08-23T18:43:58.820Z,26.06
2022-08-23T18:48:01.826Z,25.77
2022-08-23T18:52:07.637Z,25.68
2022-08-23T18:56:11.096Z,25.40
2022-08-23T19:00:15.028Z,25.14
2022-08-23T19:04:19.229Z,25.00
2022-08-23T19:08:23.845Z,24.59
2022-08-23T19:12:27.757Z,24.45
2022-08-23T19:16:32.202Z,24.32
2022-08-23T19:20:35.505Z,24.22
2022-08-23T19:24:40.040Z,24.00
2022-08-23T19:28:43.943Z,23.85
2022-08-23T19:32:47.068Z,23.74
2022-08-23T19:37:00.259Z,23.52
2022-08-23T19:41:06.629Z,23.39
2022-08-23T19:45:10.882Z,23.25
2022-08-23T19:49:14.793Z,23.11
2022-08-23T19:53:18.163Z,23.00
2022-08-23T19:57:23.019Z,22.96
2022-08-23T20:01:26.411Z,22.89
2022-08-23T20:05:29.901Z,22.83
2022-08-23T20:09:34.464Z,22.73
2022-08-23T20:13:38.899Z,22.71
2022-08-23T20:17:42.650Z,22.65
2022-08-23T20:21:45.855Z,22.52
2022-08-23T20:25:49.326Z,22.49
2022-08-23T20:29:54.693Z,22.49
2022-08-23T20:33:58.152Z,22.57
2022-08-23T20:38:02.542Z,22.59
2022-08-23T20:42:06.633Z,22.41
2022-08-23T20:46:12.572Z,22.20
2022-08-23T20:50:16.291Z,22.33
2022-08-23T20:54:20.026Z,22.12
2022-08-23T20:58:23.864Z,22.01
2022-08-23T21:02:28.353Z,21.96
2022-08-23T21:06:42.069Z,21.85
2022-08-23T21:10:48.423Z,21.71
2022-08-23T21:14:51.960Z,21.85
2022-08-23T21:18:56.938Z,21.61
2022-08-23T21:22:59.996Z,21.59
2022-08-23T21:27:03.013Z,21.48
2022-08-23T21:31:14.973Z,21.33
2022-08-23T21:35:19.450Z,21.24
2022-08-23T21:39:22.713Z,21.12
2022-08-23T21:43:26.187Z,21.03
2022-08-23T21:47:29.242Z,20.89
2022-08-23T21:51:34.909Z,20.85
2022-08-23T21:55:39.365Z,20.84
2022-08-23T21:59:42.989Z,20.76
2022-08-23T22:03:46.056Z,20.84
2022-08-23T22:07:51.963Z,20.74
2022-08-23T22:11:55.090Z,20.62
2022-08-23T22:15:58.253Z,20.59
2022-08-23T22:20:01.370Z,20.56
2022-08-23T22:24:06.083Z,20.44
2022-08-23T22:28:09.467Z,20.38
2022-08-23T22:32:12.577Z,20.49
2022-08-23T22:36:18.230Z,20.53
2022-08-23T22:40:23.232Z,20.57
2022-08-23T22:44:26.305Z,20.59
2022-08-23T22:48:31.580Z,20.64
2022-08-23T22:52:34.629Z,20.66
2022-08-23T22:56:41.903Z,20.71
2022-08-23T23:00:45.329Z,20.84
2022-08-23T23:04:48.520Z,20.93
2022-08-23T23:08:52.159Z,20.93
2022-08-23T23:12:56.658Z,20.69
2022-08-23T23:16:59.795Z,20.52
2022-08-23T23:21:05.614Z,20.36
2022-08-23T23:25:09.159Z,20.20
2022-08-23T23:29:13.722Z,20.16
2022-08-23T23:33:17.459Z,20.14
2022-08-23T23:37:20.603Z,20.26
2022-08-23T23:41:23.649Z,20.37
2022-08-23T23:45:28.194Z,20.31
2022-08-23T23:49:33.008Z,20.25
2022-08-23T23:53:36.842Z,20.10
2022-08-23T23:57:40.167Z,20.20
